<?xml version="1.0" encoding="UTF-8" standalone="no" ?>
<gpx xmlns="http://www.topografix.com/GPX/1/1" xmlns:xsi="http://www.w3.org/2001/XMLSchema-instance" xsi:schemaLocation="http://www.topografix.com/GPX/1/1 http://www.topografix.com/GPX/1/1/gpx.xsd" version="1.1" creator="VisuGPX - https://www.visugpx.com">
  <metadata>
    <name>Col de la Loubière-Serre de l'Ane (Drôme)</name>
    <desc><![CDATA[Randonnée facile à partir de La Charce-Serre de l'Ane]]></desc>
  </metadata>
  <trk>
    <name><![CDATA[Col de la Loubière - Serre de l'Ane - F]]></name>
    <trkseg>
      <trkpt lat="44.46994" lon="5.4447">
        <ele>610</ele>
        <time>2020-09-05T08:43:24.82Z</time>
      </trkpt>
      <trkpt lat="44.46985" lon="5.44497">
        <ele>609</ele>
        <time>2020-09-05T08:43:48.80Z</time>
      </trkpt>
      <trkpt lat="44.47009" lon="5.44586">
        <ele>610</ele>
        <time>2020-09-05T08:45:05.21Z</time>
      </trkpt>
      <trkpt lat="44.47035" lon="5.44843">
        <ele>610</ele>
        <time>2020-09-05T08:48:31.25Z</time>
      </trkpt>
      <trkpt lat="44.47054" lon="5.44908">
        <ele>610</ele>
        <time>2020-09-05T08:49:33.19Z</time>
      </trkpt>
      <trkpt lat="44.47122" lon="5.45125">
        <ele>623</ele>
        <time>2020-09-05T08:53:03.66Z</time>
      </trkpt>
      <trkpt lat="44.47104" lon="5.45134">
        <ele>624</ele>
        <time>2020-09-05T08:53:27.66Z</time>
      </trkpt>
      <trkpt lat="44.47084" lon="5.45107">
        <ele>624</ele>
        <time>2020-09-05T08:53:58.96Z</time>
      </trkpt>
      <trkpt lat="44.47052" lon="5.45025">
        <ele>621</ele>
        <time>2020-09-05T08:55:13.12Z</time>
      </trkpt>
      <trkpt lat="44.47046" lon="5.45034">
        <ele>621</ele>
        <time>2020-09-05T08:55:22.44Z</time>
      </trkpt>
      <trkpt lat="44.47045" lon="5.45088">
        <ele>619</ele>
        <time>2020-09-05T08:56:05.11Z</time>
      </trkpt>
      <trkpt lat="44.47022" lon="5.4503">
        <ele>617</ele>
        <time>2020-09-05T08:56:58.02Z</time>
      </trkpt>
      <trkpt lat="44.47013" lon="5.45029">
        <ele>616</ele>
        <time>2020-09-05T08:57:08.49Z</time>
      </trkpt>
      <trkpt lat="44.47021" lon="5.45072">
        <ele>617</ele>
        <time>2020-09-05T08:57:45.99Z</time>
      </trkpt>
      <trkpt lat="44.47036" lon="5.45115">
        <ele>619</ele>
        <time>2020-09-05T08:58:30.09Z</time>
      </trkpt>
      <trkpt lat="44.47046" lon="5.45124">
        <ele>620</ele>
        <time>2020-09-05T08:58:44.90Z</time>
      </trkpt>
      <trkpt lat="44.47054" lon="5.45143">
        <ele>622</ele>
        <time>2020-09-05T08:59:08.94Z</time>
      </trkpt>
      <trkpt lat="44.47061" lon="5.45144">
        <ele>623</ele>
        <time>2020-09-05T08:59:19.98Z</time>
      </trkpt>
      <trkpt lat="44.47076" lon="5.45169">
        <ele>627</ele>
        <time>2020-09-05T09:00:01.38Z</time>
      </trkpt>
      <trkpt lat="44.47103" lon="5.45176">
        <ele>632</ele>
        <time>2020-09-05T09:00:53Z</time>
      </trkpt>
      <trkpt lat="44.47122" lon="5.45213">
        <ele>639</ele>
        <time>2020-09-05T09:01:48.11Z</time>
      </trkpt>
      <trkpt lat="44.47129" lon="5.45219">
        <ele>640</ele>
        <time>2020-09-05T09:02:02.95Z</time>
      </trkpt>
      <trkpt lat="44.47158" lon="5.4526">
        <ele>646</ele>
        <time>2020-09-05T09:02:55.52Z</time>
      </trkpt>
      <trkpt lat="44.47202" lon="5.45324">
        <ele>648</ele>
        <time>2020-09-05T09:04:07.67Z</time>
      </trkpt>
      <trkpt lat="44.47217" lon="5.45356">
        <ele>647</ele>
        <time>2020-09-05T09:04:38.04Z</time>
      </trkpt>
      <trkpt lat="44.4723" lon="5.45404">
        <ele>645</ele>
        <time>2020-09-05T09:05:18.19Z</time>
      </trkpt>
      <trkpt lat="44.47226" lon="5.45447">
        <ele>644</ele>
        <time>2020-09-05T09:05:54.29Z</time>
      </trkpt>
      <trkpt lat="44.47238" lon="5.45469">
        <ele>644</ele>
        <time>2020-09-05T09:06:17.50Z</time>
      </trkpt>
      <trkpt lat="44.47272" lon="5.45589">
        <ele>649</ele>
        <time>2020-09-05T09:08:10.63Z</time>
      </trkpt>
      <trkpt lat="44.47286" lon="5.45627">
        <ele>651</ele>
        <time>2020-09-05T09:08:47.75Z</time>
      </trkpt>
      <trkpt lat="44.47303" lon="5.4564">
        <ele>652</ele>
        <time>2020-09-05T09:09:10.35Z</time>
      </trkpt>
      <trkpt lat="44.47322" lon="5.45636">
        <ele>652</ele>
        <time>2020-09-05T09:09:31.45Z</time>
      </trkpt>
      <trkpt lat="44.47347" lon="5.45659">
        <ele>652</ele>
        <time>2020-09-05T09:10:05.52Z</time>
      </trkpt>
      <trkpt lat="44.47369" lon="5.45694">
        <ele>651</ele>
        <time>2020-09-05T09:10:42.11Z</time>
      </trkpt>
      <trkpt lat="44.47387" lon="5.45741">
        <ele>651</ele>
        <time>2020-09-05T09:11:24.65Z</time>
      </trkpt>
      <trkpt lat="44.47393" lon="5.45745">
        <ele>651</ele>
        <time>2020-09-05T09:11:31.71Z</time>
      </trkpt>
      <trkpt lat="44.47424" lon="5.45754">
        <ele>651</ele>
        <time>2020-09-05T09:12:09.11Z</time>
      </trkpt>
      <trkpt lat="44.47442" lon="5.45752">
        <ele>652</ele>
        <time>2020-09-05T09:12:31.22Z</time>
      </trkpt>
      <trkpt lat="44.47454" lon="5.45757">
        <ele>653</ele>
        <time>2020-09-05T09:12:47.04Z</time>
      </trkpt>
      <trkpt lat="44.47476" lon="5.45759">
        <ele>655</ele>
        <time>2020-09-05T09:13:19.60Z</time>
      </trkpt>
      <trkpt lat="44.47495" lon="5.45773">
        <ele>657</ele>
        <time>2020-09-05T09:13:51.11Z</time>
      </trkpt>
      <trkpt lat="44.47543" lon="5.45786">
        <ele>665</ele>
        <time>2020-09-05T09:15:16.62Z</time>
      </trkpt>
      <trkpt lat="44.47568" lon="5.45784">
        <ele>670</ele>
        <time>2020-09-05T09:16:03.47Z</time>
      </trkpt>
      <trkpt lat="44.47587" lon="5.45791">
        <ele>674</ele>
        <time>2020-09-05T09:16:41.62Z</time>
      </trkpt>
      <trkpt lat="44.47612" lon="5.45812">
        <ele>680</ele>
        <time>2020-09-05T09:17:38.92Z</time>
      </trkpt>
      <trkpt lat="44.47658" lon="5.45836">
        <ele>691</ele>
        <time>2020-09-05T09:19:15.71Z</time>
      </trkpt>
      <trkpt lat="44.4768" lon="5.45863">
        <ele>697</ele>
        <time>2020-09-05T09:20:02.96Z</time>
      </trkpt>
      <trkpt lat="44.47683" lon="5.45875">
        <ele>698</ele>
        <time>2020-09-05T09:20:19.12Z</time>
      </trkpt>
      <trkpt lat="44.4769" lon="5.4588">
        <ele>699</ele>
        <time>2020-09-05T09:20:30.91Z</time>
      </trkpt>
      <trkpt lat="44.47702" lon="5.45929">
        <ele>704</ele>
        <time>2020-09-05T09:21:18.85Z</time>
      </trkpt>
      <trkpt lat="44.47728" lon="5.45978">
        <ele>706</ele>
        <time>2020-09-05T09:22:09.82Z</time>
      </trkpt>
      <trkpt lat="44.47746" lon="5.4602">
        <ele>706</ele>
        <time>2020-09-05T09:22:48.03Z</time>
      </trkpt>
      <trkpt lat="44.47748" lon="5.46061">
        <ele>705</ele>
        <time>2020-09-05T09:23:21.21Z</time>
      </trkpt>
      <trkpt lat="44.47758" lon="5.46077">
        <ele>705</ele>
        <time>2020-09-05T09:23:37.94Z</time>
      </trkpt>
      <trkpt lat="44.47771" lon="5.46086">
        <ele>705</ele>
        <time>2020-09-05T09:23:54.52Z</time>
      </trkpt>
      <trkpt lat="44.47771" lon="5.46092">
        <ele>705</ele>
        <time>2020-09-05T09:23:59.58Z</time>
      </trkpt>
      <trkpt lat="44.47766" lon="5.46102">
        <ele>705</ele>
        <time>2020-09-05T09:24:09.43Z</time>
      </trkpt>
      <trkpt lat="44.47746" lon="5.46123">
        <ele>706</ele>
        <time>2020-09-05T09:24:39.39Z</time>
      </trkpt>
      <trkpt lat="44.47743" lon="5.46132">
        <ele>706</ele>
        <time>2020-09-05T09:24:48.08Z</time>
      </trkpt>
      <trkpt lat="44.47743" lon="5.46142">
        <ele>707</ele>
        <time>2020-09-05T09:24:57.02Z</time>
      </trkpt>
      <trkpt lat="44.47758" lon="5.46165">
        <ele>708</ele>
        <time>2020-09-05T09:25:25.39Z</time>
      </trkpt>
      <trkpt lat="44.47771" lon="5.46206">
        <ele>711</ele>
        <time>2020-09-05T09:26:11.07Z</time>
      </trkpt>
      <trkpt lat="44.47784" lon="5.46227">
        <ele>714</ele>
        <time>2020-09-05T09:26:43.09Z</time>
      </trkpt>
      <trkpt lat="44.47779" lon="5.46248">
        <ele>716</ele>
        <time>2020-09-05T09:27:09.94Z</time>
      </trkpt>
      <trkpt lat="44.47792" lon="5.46301">
        <ele>724</ele>
        <time>2020-09-05T09:28:24.74Z</time>
      </trkpt>
      <trkpt lat="44.47811" lon="5.46325">
        <ele>729</ele>
        <time>2020-09-05T09:29:15.62Z</time>
      </trkpt>
      <trkpt lat="44.47807" lon="5.46345">
        <ele>733</ele>
        <time>2020-09-05T09:29:45.98Z</time>
      </trkpt>
      <trkpt lat="44.47812" lon="5.46383">
        <ele>739</ele>
        <time>2020-09-05T09:30:43.55Z</time>
      </trkpt>
      <trkpt lat="44.47807" lon="5.46407">
        <ele>744</ele>
        <time>2020-09-05T09:31:21.66Z</time>
      </trkpt>
      <trkpt lat="44.47808" lon="5.46415">
        <ele>745</ele>
        <time>2020-09-05T09:31:36.45Z</time>
      </trkpt>
      <trkpt lat="44.47813" lon="5.46418">
        <ele>746</ele>
        <time>2020-09-05T09:31:47.80Z</time>
      </trkpt>
      <trkpt lat="44.47827" lon="5.46415">
        <ele>750</ele>
        <time>2020-09-05T09:32:18.06Z</time>
      </trkpt>
      <trkpt lat="44.47838" lon="5.46393">
        <ele>755</ele>
        <time>2020-09-05T09:33:02.17Z</time>
      </trkpt>
      <trkpt lat="44.47843" lon="5.46391">
        <ele>756</ele>
        <time>2020-09-05T09:33:12.38Z</time>
      </trkpt>
      <trkpt lat="44.47846" lon="5.46396">
        <ele>757</ele>
        <time>2020-09-05T09:33:22.62Z</time>
      </trkpt>
      <trkpt lat="44.4786" lon="5.46432">
        <ele>764</ele>
        <time>2020-09-05T09:34:28.55Z</time>
      </trkpt>
      <trkpt lat="44.47853" lon="5.46474">
        <ele>772</ele>
        <time>2020-09-05T09:35:32.10Z</time>
      </trkpt>
      <trkpt lat="44.47856" lon="5.46481">
        <ele>773</ele>
        <time>2020-09-05T09:35:42.51Z</time>
      </trkpt>
      <trkpt lat="44.4786" lon="5.46482">
        <ele>774</ele>
        <time>2020-09-05T09:35:52.32Z</time>
      </trkpt>
      <trkpt lat="44.47873" lon="5.46469">
        <ele>777</ele>
        <time>2020-09-05T09:36:22.16Z</time>
      </trkpt>
      <trkpt lat="44.47887" lon="5.46458">
        <ele>780</ele>
        <time>2020-09-05T09:36:52.18Z</time>
      </trkpt>
      <trkpt lat="44.47889" lon="5.4644">
        <ele>783</ele>
        <time>2020-09-05T09:37:16.48Z</time>
      </trkpt>
      <trkpt lat="44.47893" lon="5.4644">
        <ele>784</ele>
        <time>2020-09-05T09:37:23.59Z</time>
      </trkpt>
      <trkpt lat="44.47896" lon="5.46445">
        <ele>785</ele>
        <time>2020-09-05T09:37:33.90Z</time>
      </trkpt>
      <trkpt lat="44.47901" lon="5.46487">
        <ele>791</ele>
        <time>2020-09-05T09:38:27.02Z</time>
      </trkpt>
      <trkpt lat="44.47891" lon="5.46528">
        <ele>796</ele>
        <time>2020-09-05T09:39:18.18Z</time>
      </trkpt>
      <trkpt lat="44.47891" lon="5.46543">
        <ele>798</ele>
        <time>2020-09-05T09:39:33.82Z</time>
      </trkpt>
      <trkpt lat="44.47895" lon="5.46556">
        <ele>799</ele>
        <time>2020-09-05T09:39:47.79Z</time>
      </trkpt>
      <trkpt lat="44.47905" lon="5.46563">
        <ele>801</ele>
        <time>2020-09-05T09:40:02.19Z</time>
      </trkpt>
      <trkpt lat="44.47943" lon="5.46604">
        <ele>804</ele>
        <time>2020-09-05T09:40:58.02Z</time>
      </trkpt>
      <trkpt lat="44.4796" lon="5.46639">
        <ele>803</ele>
        <time>2020-09-05T09:41:33.89Z</time>
      </trkpt>
      <trkpt lat="44.47971" lon="5.46658">
        <ele>800</ele>
        <time>2020-09-05T09:42:05.22Z</time>
      </trkpt>
      <trkpt lat="44.47987" lon="5.46672">
        <ele>797</ele>
        <time>2020-09-05T09:42:41.99Z</time>
      </trkpt>
      <trkpt lat="44.47917" lon="5.46728">
        <ele>766</ele>
        <time>2020-09-05T09:46:23.46Z</time>
      </trkpt>
      <trkpt lat="44.4784" lon="5.46786">
        <ele>725</ele>
        <time>2020-09-05T09:49:42.99Z</time>
      </trkpt>
      <trkpt lat="44.47807" lon="5.47022">
        <ele>674</ele>
        <time>2020-09-05T09:54:14.79Z</time>
      </trkpt>
      <trkpt lat="44.47826" lon="5.47141">
        <ele>666</ele>
        <time>2020-09-05T09:55:54.38Z</time>
      </trkpt>
      <trkpt lat="44.47785" lon="5.47157">
        <ele>664</ele>
        <time>2020-09-05T09:56:41.84Z</time>
      </trkpt>
      <trkpt lat="44.47727" lon="5.47199">
        <ele>662</ele>
        <time>2020-09-05T09:57:55Z</time>
      </trkpt>
      <trkpt lat="44.47683" lon="5.47191">
        <ele>661</ele>
        <time>2020-09-05T09:58:43.43Z</time>
      </trkpt>
      <trkpt lat="44.47608" lon="5.47169">
        <ele>659</ele>
        <time>2020-09-05T10:00:09.09Z</time>
      </trkpt>
      <trkpt lat="44.47536" lon="5.47168">
        <ele>656</ele>
        <time>2020-09-05T10:01:28.86Z</time>
      </trkpt>
      <trkpt lat="44.47465" lon="5.47196">
        <ele>654</ele>
        <time>2020-09-05T10:02:50.71Z</time>
      </trkpt>
      <trkpt lat="44.47438" lon="5.47227">
        <ele>653</ele>
        <time>2020-09-05T10:03:29.42Z</time>
      </trkpt>
      <trkpt lat="44.47392" lon="5.47225">
        <ele>652</ele>
        <time>2020-09-05T10:04:21.11Z</time>
      </trkpt>
      <trkpt lat="44.47341" lon="5.47211">
        <ele>651</ele>
        <time>2020-09-05T10:05:19.05Z</time>
      </trkpt>
      <trkpt lat="44.47313" lon="5.47215">
        <ele>651</ele>
        <time>2020-09-05T10:05:50.29Z</time>
      </trkpt>
      <trkpt lat="44.47261" lon="5.47196">
        <ele>649</ele>
        <time>2020-09-05T10:06:49.94Z</time>
      </trkpt>
      <trkpt lat="44.47219" lon="5.47216">
        <ele>648</ele>
        <time>2020-09-05T10:07:39.72Z</time>
      </trkpt>
      <trkpt lat="44.47174" lon="5.4725">
        <ele>647</ele>
        <time>2020-09-05T10:08:35.94Z</time>
      </trkpt>
      <trkpt lat="44.4713" lon="5.47259">
        <ele>646</ele>
        <time>2020-09-05T10:09:25.86Z</time>
      </trkpt>
      <trkpt lat="44.47095" lon="5.47258">
        <ele>645</ele>
        <time>2020-09-05T10:10:04.69Z</time>
      </trkpt>
      <trkpt lat="44.47068" lon="5.47251">
        <ele>644</ele>
        <time>2020-09-05T10:10:34.76Z</time>
      </trkpt>
      <trkpt lat="44.47052" lon="5.47238">
        <ele>643</ele>
        <time>2020-09-05T10:10:55.51Z</time>
      </trkpt>
      <trkpt lat="44.47023" lon="5.47185">
        <ele>641</ele>
        <time>2020-09-05T10:11:48.95Z</time>
      </trkpt>
      <trkpt lat="44.47005" lon="5.47165">
        <ele>640</ele>
        <time>2020-09-05T10:12:13.83Z</time>
      </trkpt>
      <trkpt lat="44.46982" lon="5.47147">
        <ele>639</ele>
        <time>2020-09-05T10:12:43.70Z</time>
      </trkpt>
      <trkpt lat="44.46989" lon="5.47117">
        <ele>638</ele>
        <time>2020-09-05T10:13:09.10Z</time>
      </trkpt>
      <trkpt lat="44.46988" lon="5.47103">
        <ele>638</ele>
        <time>2020-09-05T10:13:20.47Z</time>
      </trkpt>
      <trkpt lat="44.46962" lon="5.47058">
        <ele>636</ele>
        <time>2020-09-05T10:14:06.05Z</time>
      </trkpt>
      <trkpt lat="44.46946" lon="5.4701">
        <ele>634</ele>
        <time>2020-09-05T10:14:48.05Z</time>
      </trkpt>
      <trkpt lat="44.46941" lon="5.4695">
        <ele>633</ele>
        <time>2020-09-05T10:15:36.05Z</time>
      </trkpt>
      <trkpt lat="44.46941" lon="5.4688">
        <ele>632</ele>
        <time>2020-09-05T10:16:31.60Z</time>
      </trkpt>
      <trkpt lat="44.46942" lon="5.46844">
        <ele>632</ele>
        <time>2020-09-05T10:17:01.95Z</time>
      </trkpt>
      <trkpt lat="44.46989" lon="5.46682">
        <ele>636</ele>
        <time>2020-09-05T10:19:26.93Z</time>
      </trkpt>
      <trkpt lat="44.47002" lon="5.46553">
        <ele>637</ele>
        <time>2020-09-05T10:21:10.52Z</time>
      </trkpt>
      <trkpt lat="44.47028" lon="5.46403">
        <ele>636</ele>
        <time>2020-09-05T10:23:13.65Z</time>
      </trkpt>
      <trkpt lat="44.47051" lon="5.46338">
        <ele>636</ele>
        <time>2020-09-05T10:24:11.06Z</time>
      </trkpt>
      <trkpt lat="44.47056" lon="5.4628">
        <ele>636</ele>
        <time>2020-09-05T10:24:58.06Z</time>
      </trkpt>
      <trkpt lat="44.47064" lon="5.46233">
        <ele>636</ele>
        <time>2020-09-05T10:25:37.04Z</time>
      </trkpt>
      <trkpt lat="44.47072" lon="5.46206">
        <ele>637</ele>
        <time>2020-09-05T10:26:00.65Z</time>
      </trkpt>
      <trkpt lat="44.47082" lon="5.46196">
        <ele>637</ele>
        <time>2020-09-05T10:26:13.56Z</time>
      </trkpt>
      <trkpt lat="44.47183" lon="5.46215">
        <ele>636</ele>
        <time>2020-09-05T10:28:06.89Z</time>
      </trkpt>
      <trkpt lat="44.47215" lon="5.46201">
        <ele>636</ele>
        <time>2020-09-05T10:28:44.90Z</time>
      </trkpt>
      <trkpt lat="44.47244" lon="5.46174">
        <ele>636</ele>
        <time>2020-09-05T10:29:23.54Z</time>
      </trkpt>
      <trkpt lat="44.47295" lon="5.46143">
        <ele>636</ele>
        <time>2020-09-05T10:30:25.17Z</time>
      </trkpt>
      <trkpt lat="44.4732" lon="5.46107">
        <ele>636</ele>
        <time>2020-09-05T10:31:05.30Z</time>
      </trkpt>
      <trkpt lat="44.47335" lon="5.46072">
        <ele>636</ele>
        <time>2020-09-05T10:31:37.40Z</time>
      </trkpt>
      <trkpt lat="44.47385" lon="5.46009">
        <ele>634</ele>
        <time>2020-09-05T10:32:52.59Z</time>
      </trkpt>
      <trkpt lat="44.474" lon="5.45969">
        <ele>633</ele>
        <time>2020-09-05T10:33:28.32Z</time>
      </trkpt>
      <trkpt lat="44.47407" lon="5.45927">
        <ele>632</ele>
        <time>2020-09-05T10:34:02.39Z</time>
      </trkpt>
      <trkpt lat="44.47403" lon="5.45894">
        <ele>631</ele>
        <time>2020-09-05T10:34:29.28Z</time>
      </trkpt>
      <trkpt lat="44.47393" lon="5.45881">
        <ele>630</ele>
        <time>2020-09-05T10:34:43.94Z</time>
      </trkpt>
      <trkpt lat="44.47379" lon="5.45868">
        <ele>629</ele>
        <time>2020-09-05T10:35:02.85Z</time>
      </trkpt>
      <trkpt lat="44.47345" lon="5.45851">
        <ele>627</ele>
        <time>2020-09-05T10:35:44.24Z</time>
      </trkpt>
      <trkpt lat="44.47285" lon="5.45773">
        <ele>622</ele>
        <time>2020-09-05T10:37:14.37Z</time>
      </trkpt>
      <trkpt lat="44.4723" lon="5.45724">
        <ele>620</ele>
        <time>2020-09-05T10:38:26.71Z</time>
      </trkpt>
      <trkpt lat="44.47199" lon="5.45673">
        <ele>620</ele>
        <time>2020-09-05T10:39:20.71Z</time>
      </trkpt>
      <trkpt lat="44.47158" lon="5.45586">
        <ele>621</ele>
        <time>2020-09-05T10:40:44.42Z</time>
      </trkpt>
      <trkpt lat="44.47094" lon="5.45285">
        <ele>621</ele>
        <time>2020-09-05T10:44:54.65Z</time>
      </trkpt>
      <trkpt lat="44.47046" lon="5.45178">
        <ele>618</ele>
        <time>2020-09-05T10:46:34.81Z</time>
      </trkpt>
      <trkpt lat="44.47005" lon="5.45103">
        <ele>616</ele>
        <time>2020-09-05T10:47:49.84Z</time>
      </trkpt>
      <trkpt lat="44.46969" lon="5.45038">
        <ele>614</ele>
        <time>2020-09-05T10:48:55.29Z</time>
      </trkpt>
      <trkpt lat="44.46951" lon="5.45123">
        <ele>615</ele>
        <time>2020-09-05T10:50:08.99Z</time>
      </trkpt>
      <trkpt lat="44.46941" lon="5.45136">
        <ele>616</ele>
        <time>2020-09-05T10:50:25.54Z</time>
      </trkpt>
      <trkpt lat="44.4692" lon="5.4514">
        <ele>617</ele>
        <time>2020-09-05T10:50:51Z</time>
      </trkpt>
      <trkpt lat="44.46899" lon="5.45161">
        <ele>618</ele>
        <time>2020-09-05T10:51:22.85Z</time>
      </trkpt>
      <trkpt lat="44.46885" lon="5.4517">
        <ele>619</ele>
        <time>2020-09-05T10:51:41.97Z</time>
      </trkpt>
      <trkpt lat="44.46872" lon="5.4517">
        <ele>620</ele>
        <time>2020-09-05T10:51:57.79Z</time>
      </trkpt>
      <trkpt lat="44.46855" lon="5.45149">
        <ele>621</ele>
        <time>2020-09-05T10:52:25.26Z</time>
      </trkpt>
      <trkpt lat="44.46836" lon="5.45119">
        <ele>623</ele>
        <time>2020-09-05T10:53:00.44Z</time>
      </trkpt>
      <trkpt lat="44.46821" lon="5.45076">
        <ele>624</ele>
        <time>2020-09-05T10:53:39.77Z</time>
      </trkpt>
      <trkpt lat="44.46808" lon="5.44988">
        <ele>625</ele>
        <time>2020-09-05T10:54:51.52Z</time>
      </trkpt>
      <trkpt lat="44.46811" lon="5.44931">
        <ele>624</ele>
        <time>2020-09-05T10:55:36.26Z</time>
      </trkpt>
      <trkpt lat="44.46802" lon="5.44905">
        <ele>623</ele>
        <time>2020-09-05T10:56:00.10Z</time>
      </trkpt>
      <trkpt lat="44.46819" lon="5.44899">
        <ele>621</ele>
        <time>2020-09-05T10:56:21.21Z</time>
      </trkpt>
      <trkpt lat="44.4684" lon="5.44897">
        <ele>619</ele>
        <time>2020-09-05T10:56:45.09Z</time>
      </trkpt>
      <trkpt lat="44.46859" lon="5.44905">
        <ele>618</ele>
        <time>2020-09-05T10:57:08.49Z</time>
      </trkpt>
      <trkpt lat="44.46883" lon="5.44908">
        <ele>615</ele>
        <time>2020-09-05T10:57:36.33Z</time>
      </trkpt>
      <trkpt lat="44.46901" lon="5.44898">
        <ele>614</ele>
        <time>2020-09-05T10:57:58.13Z</time>
      </trkpt>
      <trkpt lat="44.46955" lon="5.44909">
        <ele>610</ele>
        <time>2020-09-05T10:58:58.74Z</time>
      </trkpt>
      <trkpt lat="44.46982" lon="5.44863">
        <ele>610</ele>
        <time>2020-09-05T10:59:46.29Z</time>
      </trkpt>
      <trkpt lat="44.46997" lon="5.44849">
        <ele>610</ele>
        <time>2020-09-05T11:00:06.39Z</time>
      </trkpt>
      <trkpt lat="44.47003" lon="5.44849">
        <ele>610</ele>
        <time>2020-09-05T11:00:13.47Z</time>
      </trkpt>
      <trkpt lat="44.47008" lon="5.44854">
        <ele>610</ele>
        <time>2020-09-05T11:00:20.52Z</time>
      </trkpt>
      <trkpt lat="44.47022" lon="5.44924">
        <ele>611</ele>
        <time>2020-09-05T11:01:19.19Z</time>
      </trkpt>
      <trkpt lat="44.47026" lon="5.44927">
        <ele>611</ele>
        <time>2020-09-05T11:01:24.08Z</time>
      </trkpt>
      <trkpt lat="44.47037" lon="5.44919">
        <ele>611</ele>
        <time>2020-09-05T11:01:37.56Z</time>
      </trkpt>
      <trkpt lat="44.4703" lon="5.4489">
        <ele>611</ele>
        <time>2020-09-05T11:02:01.95Z</time>
      </trkpt>
      <trkpt lat="44.4703" lon="5.44876">
        <ele>611</ele>
        <time>2020-09-05T11:02:13.61Z</time>
      </trkpt>
      <trkpt lat="44.4704" lon="5.44862">
        <ele>610</ele>
        <time>2020-09-05T11:02:29.68Z</time>
      </trkpt>
      <trkpt lat="44.47035" lon="5.44843">
        <ele>610</ele>
        <time>2020-09-05T11:02:45.98Z</time>
      </trkpt>
      <trkpt lat="44.47009" lon="5.44586">
        <ele>609</ele>
        <time>2020-09-05T11:06:13.47Z</time>
      </trkpt>
      <trkpt lat="44.46985" lon="5.44497">
        <ele>611</ele>
        <time>2020-09-05T11:07:33.34Z</time>
      </trkpt>
      <trkpt lat="44.46991" lon="5.44469">
        <ele>609</ele>
        <time>2020-09-05T11:07:56.52Z</time>
      </trkpt>
    </trkseg>
  </trk>
</gpx>